Time;durP1;ratioP1;P1;durP2;ratioP2;P2;SDS_P1;SDS_P2;PMS_P1;PMS_P2;Temp;Humidity;BMP_temperature;BMP_pressure;BME280_temperature;BME280_humidity;BME280_pressure;Samples;Min_cycle;Max_cycle;Signal;HPM_P1;HPM_P2
2021/01/24 00:00:31;;;;;;;9.57;8.48;;;8.60;99.90;;;;;;5061836;28;20066;-74
2021/01/24 00:02:56;;;;;;;12.50;8.95;;;8.60;99.90;;;;;;5064309;28;20039;-75
2021/01/24 00:05:23;;;;;;;11.00;8.35;;;8.70;99.90;;;;;;5073037;28;20021;-74
2021/01/24 00:07:49;;;;;;;8.90;8.02;;;8.80;99.90;;;;;;5065189;28;20112;-74
2021/01/24 00:10:17;;;;;;;9.63;8.13;;;8.70;99.90;;;;;;5067345;28;20082;-74
2021/01/24 00:12:43;;;;;;;9.63;8.63;;;8.70;99.90;;;;;;5063159;28;20032;-77
2021/01/24 00:15:09;;;;;;;9.82;8.82;;;8.70;99.90;;;;;;5061256;28;20025;-75
2021/01/24 00:17:36;;;;;;;10.63;9.63;;;8.70;99.90;;;;;;5061228;28;20025;-74
2021/01/24 00:20:04;;;;;;;11.55;10.52;;;8.60;99.90;;;;;;5070718;28;20079;-75
2021/01/24 00:22:29;;;;;;;10.30;9.23;;;8.60;99.90;;;;;;5072779;28;20020;-74
2021/01/24 00:24:56;;;;;;;12.38;11.02;;;8.50;99.90;;;;;;5069138;28;20016;-75
2021/01/24 00:27:23;;;;;;;14.63;13.15;;;8.40;99.90;;;;;;5065842;28;20081;-75
2021/01/24 00:29:51;;;;;;;14.45;12.93;;;8.40;99.90;;;;;;5065632;28;20037;-78
2021/01/24 00:32:17;;;;;;;17.63;12.85;;;8.30;99.90;;;;;;5061604;28;20099;-77
2021/01/24 00:34:44;;;;;;;15.95;13.63;;;8.40;99.90;;;;;;5054940;28;20099;-77
2021/01/24 00:37:11;;;;;;;14.80;13.25;;;8.30;99.90;;;;;;5068442;28;20020;-75
2021/01/24 00:39:37;;;;;;;15.30;13.82;;;8.30;99.90;;;;;;5063131;28;20136;-74
2021/01/24 00:42:03;;;;;;;16.15;14.52;;;8.30;99.90;;;;;;5064523;28;20046;-75
2021/01/24 00:44:28;;;;;;;16.58;12.23;;;8.20;99.90;;;;;;5071674;28;20104;-74
2021/01/24 00:46:54;;;;;;;14.30;12.85;;;8.10;99.90;;;;;;5069693;28;20030;-75
2021/01/24 00:49:20;;;;;;;13.40;12.20;;;8.30;99.90;;;;;;5070568;28;20031;-76
2021/01/24 00:51:46;;;;;;;16.33;13.23;;;8.30;99.90;;;;;;5068360;28;20036;-76
2021/01/24 00:54:12;;;;;;;11.35;9.77;;;8.20;99.90;;;;;;5065019;28;20029;-76
2021/01/24 00:56:38;;;;;;;11.32;10.07;;;8.20;99.90;;;;;;5061734;28;20047;-75
2021/01/24 00:59:04;;;;;;;9.70;8.73;;;8.30;99.90;;;;;;5061350;28;20025;-75
2021/01/24 01:01:30;;;;;;;13.25;8.75;;;8.30;99.90;;;;;;5068058;28;20036;-75
2021/01/24 01:03:56;;;;;;;9.98;8.98;;;8.30;99.90;;;;;;5063075;28;20024;-75
2021/01/24 01:06:21;;;;;;;11.50;9.02;;;8.30;99.90;;;;;;5071170;28;20020;-75
2021/01/24 01:08:47;;;;;;;10.85;9.75;;;8.30;99.90;;;;;;5065586;28;20151;-75
2021/01/24 01:11:13;;;;;;;10.38;9.27;;;8.20;99.90;;;;;;5064822;28;20021;-75
2021/01/24 01:13:39;;;;;;;10.77;9.68;;;8.20;99.90;;;;;;5059848;28;20021;-73
2021/01/24 01:16:06;;;;;;;9.65;8.13;;;8.20;99.90;;;;;;5063498;28;20044;-74
2021/01/24 01:18:32;;;;;;;7.93;7.32;;;8.10;99.90;;;;;;5061523;28;20025;-75
2021/01/24 01:20:59;;;;;;;9.82;6.70;;;8.00;99.90;;;;;;5067731;28;20107;-76
2021/01/24 01:23:24;;;;;;;9.38;8.07;;;8.10;99.90;;;;;;5064434;28;20017;-75
2021/01/24 01:25:52;;;;;;;7.90;7.03;;;8.00;99.90;;;;;;5068751;28;20020;-75
2021/01/24 01:28:18;;;;;;;6.60;6.00;;;8.00;99.90;;;;;;5063397;28;20032;-75
2021/01/24 01:30:44;;;;;;;6.70;5.93;;;8.00;99.90;;;;;;5061541;28;20471;-75
2021/01/24 01:33:10;;;;;;;7.70;6.82;;;8.00;99.90;;;;;;5062864;28;20052;-75
2021/01/24 01:35:36;;;;;;;10.13;6.18;;;8.00;99.90;;;;;;5055135;28;20116;-76
2021/01/24 01:38:03;;;;;;;6.03;5.45;;;8.00;99.90;;;;;;5060792;28;20036;-76
2021/01/24 01:40:29;;;;;;;7.53;5.30;;;8.00;99.90;;;;;;5068095;28;20021;-75
2021/01/24 01:42:58;;;;;;;6.70;5.47;;;8.10;99.90;;;;;;5065136;28;20475;-74
2021/01/24 01:45:24;;;;;;;6.13;5.53;;;8.20;99.90;;;;;;5063110;28;20033;-76
2021/01/24 01:47:51;;;;;;;6.18;4.88;;;8.30;99.90;;;;;;5066835;28;20036;-76
2021/01/24 01:50:19;;;;;;;7.88;5.40;;;8.20;99.90;;;;;;5063877;28;20028;-74
2021/01/24 01:52:45;;;;;;;5.75;4.85;;;8.20;99.90;;;;;;5065748;28;20079;-75
2021/01/24 01:55:12;;;;;;;8.35;4.85;;;8.20;99.90;;;;;;5067414;28;20021;-76
2021/01/24 01:57:37;;;;;;;5.95;4.43;;;8.20;99.90;;;;;;5074316;28;20426;-74
2021/01/24 02:00:07;;;;;;;6.65;3.95;;;8.20;99.90;;;;;;5062694;28;20108;-77
2021/01/24 02:02:55;;;;;;;6.43;5.63;;;8.30;99.90;;;;;;5072501;28;20020;-75
2021/01/24 02:05:39;;;;;;;6.07;4.57;;;8.40;99.90;;;;;;5066671;28;20025;-76
2021/01/24 02:08:12;;;;;;;7.30;4.82;;;8.40;99.90;;;;;;5063987;28;20029;-75
2021/01/24 02:10:48;;;;;;;5.80;4.32;;;8.50;99.90;;;;;;5070371;28;20028;-75
2021/01/24 02:13:48;;;;;;;7.70;4.18;;;8.40;99.90;;;;;;5063104;28;20046;-74
2021/01/24 02:16:15;;;;;;;4.70;3.58;;;8.30;99.90;;;;;;5056028;28;20033;-74
2021/01/24 02:18:45;;;;;;;3.95;3.42;;;8.30;99.90;;;;;;5060168;28;20483;-76
2021/01/24 02:21:26;;;;;;;4.60;3.47;;;8.30;99.90;;;;;;5066853;28;20031;-76
2021/01/24 02:23:55;;;;;;;5.03;3.58;;;8.30;99.90;;;;;;5059026;28;20032;-76
2021/01/24 02:26:44;;;;;;;6.38;4.38;;;8.40;99.90;;;;;;5074858;28;20088;-75
2021/01/24 02:29:13;;;;;;;5.80;3.17;;;8.40;99.90;;;;;;5066904;28;20032;-76
2021/01/24 02:31:40;;;;;;;5.88;2.97;;;8.40;99.90;;;;;;5073503;28;20671;-78
2021/01/24 02:34:08;;;;;;;7.00;3.05;;;8.40;99.90;;;;;;5058945;28;20060;-75
2021/01/24 02:36:36;;;;;;;3.22;2.88;;;8.40;99.90;;;;;;5067802;28;20059;-76
2021/01/24 02:39:04;;;;;;;2.95;2.20;;;8.40;99.90;;;;;;5063754;28;20025;-75
2021/01/24 02:41:31;;;;;;;2.78;2.45;;;8.40;99.90;;;;;;5075869;28;20035;-76
2021/01/24 02:43:57;;;;;;;4.63;2.45;;;8.50;99.90;;;;;;5066285;28;20402;-76
2021/01/24 02:46:23;;;;;;;8.65;2.50;;;8.40;99.90;;;;;;5072607;28;20086;-80
2021/01/24 02:48:51;;;;;;;13.57;7.22;;;8.40;99.90;;;;;;5059261;28;20029;-76
2021/01/24 02:51:18;;;;;;;24.27;11.63;;;8.40;99.90;;;;;;5072499;28;20033;-76
2021/01/24 02:53:48;;;;;;;30.95;14.10;;;8.30;99.90;;;;;;5058175;28;20057;-74
2021/01/24 02:56:16;;;;;;;40.17;15.43;;;8.30;99.90;;;;;;5066425;28;20028;-75
2021/01/24 02:58:42;;;;;;;22.13;9.05;;;8.30;99.90;;;;;;5070982;28;20091;-74
2021/01/24 03:01:07;;;;;;;19.88;6.85;;;8.30;99.90;;;;;;5065675;28;20017;-74
2021/01/24 03:03:33;;;;;;;22.02;8.85;;;8.20;99.90;;;;;;5060422;28;20043;-75
2021/01/24 03:05:59;;;;;;;22.92;10.02;;;8.30;99.90;;;;;;5061807;28;20025;-75
2021/01/24 03:08:25;;;;;;;17.95;8.48;;;8.30;99.90;;;;;;5066711;28;20104;-75
2021/01/24 03:10:51;;;;;;;24.70;10.02;;;8.30;99.90;;;;;;5070133;28;20060;-76
2021/01/24 03:13:39;;;;;;;28.75;11.75;;;8.40;99.90;;;;;;5057810;28;20577;-76
2021/01/24 03:16:07;;;;;;;22.05;6.90;;;8.50;99.90;;;;;;5073405;28;20036;-76
2021/01/24 03:18:37;;;;;;;16.88;7.20;;;8.40;99.90;;;;;;5066607;28;20028;-76
2021/01/24 03:21:06;;;;;;;10.77;3.80;;;8.40;99.90;;;;;;5066453;28;20025;-75
2021/01/24 03:23:36;;;;;;;6.78;4.47;;;8.30;99.90;;;;;;5064739;28;20387;-74
2021/01/24 03:26:04;;;;;;;2.85;2.05;;;8.20;99.90;;;;;;5056926;28;20028;-75
2021/01/24 03:28:30;;;;;;;5.05;2.38;;;8.10;99.90;;;;;;5065961;28;20021;-75
2021/01/24 03:30:57;;;;;;;6.63;2.35;;;8.20;99.90;;;;;;5063781;28;20017;-75
2021/01/24 03:33:23;;;;;;;4.93;1.50;;;8.10;99.90;;;;;;5066450;28;20017;-75
2021/01/24 03:35:49;;;;;;;2.78;1.77;;;8.10;99.90;;;;;;5067531;28;20031;-76
2021/01/24 03:38:15;;;;;;;4.20;2.35;;;8.10;99.90;;;;;;5070333;28;20505;-74
2021/01/24 03:40:41;;;;;;;5.28;2.65;;;8.20;99.90;;;;;;5063678;28;20041;-74
2021/01/24 03:43:07;;;;;;;8.13;2.38;;;8.20;99.90;;;;;;5062843;28;20097;-75
2021/01/24 03:45:32;;;;;;;3.78;2.78;;;8.20;99.90;;;;;;5058376;28;20434;-78
2021/01/24 03:47:58;;;;;;;4.13;1.92;;;8.20;99.90;;;;;;5061322;28;20017;-76
2021/01/24 03:50:24;;;;;;;2.47;1.10;;;8.30;99.90;;;;;;5063171;28;20381;-78
2021/01/24 03:52:50;;;;;;;2.60;1.40;;;8.30;99.90;;;;;;5064477;28;20071;-76
2021/01/24 03:55:16;;;;;;;9.68;2.95;;;8.40;99.90;;;;;;5066085;28;20025;-76
2021/01/24 03:57:42;;;;;;;1.33;1.23;;;8.40;99.90;;;;;;5064022;28;20055;-75
2021/01/24 04:00:09;;;;;;;6.35;3.25;;;8.50;99.90;;;;;;5064631;28;20390;-76
2021/01/24 04:02:35;;;;;;;2.35;1.70;;;8.50;99.90;;;;;;5064887;28;20035;-76
2021/01/24 04:05:00;;;;;;;2.20;1.40;;;8.40;99.90;;;;;;5056764;28;20013;-75
2021/01/24 04:07:26;;;;;;;1.77;1.25;;;8.40;99.90;;;;;;5060844;28;20021;-76
2021/01/24 04:09:52;;;;;;;3.25;1.35;;;8.40;99.90;;;;;;5057402;28;20095;-74
2021/01/24 04:12:18;;;;;;;1.92;1.20;;;8.30;99.90;;;;;;5059151;28;20036;-75
2021/01/24 04:14:44;;;;;;;2.45;0.95;;;8.30;99.90;;;;;;5055835;28;20064;-75
2021/01/24 04:17:10;;;;;;;1.00;0.52;;;8.20;99.90;;;;;;5062700;28;20391;-76
2021/01/24 04:19:36;;;;;;;1.95;0.93;;;8.20;99.90;;;;;;5066832;28;20021;-76
2021/01/24 04:22:02;;;;;;;0.93;0.73;;;8.10;99.90;;;;;;5065174;28;20051;-76
2021/01/24 04:24:28;;;;;;;5.28;1.08;;;8.20;99.90;;;;;;5054359;28;20028;-76
2021/01/24 04:26:54;;;;;;;0.98;0.55;;;8.30;99.90;;;;;;5059230;28;20096;-76
2021/01/24 04:29:20;;;;;;;1.35;0.77;;;8.20;99.90;;;;;;5066619;28;20100;-76
2021/01/24 04:31:46;;;;;;;1.90;1.05;;;8.20;99.90;;;;;;5064748;28;20069;-75
2021/01/24 04:34:12;;;;;;;0.73;0.70;;;8.10;99.90;;;;;;5059679;28;20220;-76
2021/01/24 04:36:39;;;;;;;4.57;0.50;;;8.10;99.90;;;;;;5064790;28;20122;-76
2021/01/24 04:39:05;;;;;;;2.55;0.82;;;8.10;99.90;;;;;;5071266;28;20058;-75
2021/01/24 04:41:36;;;;;;;3.08;0.80;;;8.00;99.90;;;;;;5063348;28;20471;-76
2021/01/24 04:44:03;;;;;;;1.92;1.05;;;8.00;99.90;;;;;;5055072;28;20025;-75
2021/01/24 04:46:31;;;;;;;1.52;1.02;;;8.00;99.90;;;;;;5067842;28;20025;-75
2021/01/24 04:48:59;;;;;;;3.55;1.10;;;8.00;99.90;;;;;;5061817;28;20050;-76
2021/01/24 04:51:24;;;;;;;1.05;0.60;;;8.00;99.90;;;;;;5052253;28;20021;-74
2021/01/24 04:53:51;;;;;;;2.58;0.85;;;7.90;99.90;;;;;;5065435;28;20051;-76
2021/01/24 04:56:17;;;;;;;2.10;0.70;;;7.80;99.90;;;;;;5068439;28;20032;-76
2021/01/24 04:58:43;;;;;;;0.90;0.80;;;7.80;99.90;;;;;;5067951;28;20034;-75
2021/01/24 05:01:10;;;;;;;3.47;2.50;;;7.80;99.90;;;;;;5069287;28;20016;-77
2021/01/24 05:03:36;;;;;;;1.95;1.70;;;7.80;99.90;;;;;;5064781;28;20016;-76
2021/01/24 05:06:02;;;;;;;2.17;1.30;;;7.80;99.90;;;;;;5061371;28;20051;-77
2021/01/24 05:08:31;;;;;;;3.20;1.30;;;7.80;99.90;;;;;;5064879;28;20032;-75
2021/01/24 05:11:04;;;;;;;2.00;0.88;;;7.80;99.90;;;;;;5054650;28;20115;-76
2021/01/24 05:13:31;;;;;;;3.42;1.38;;;7.90;99.90;;;;;;5064274;28;20013;-75
2021/01/24 05:15:58;;;;;;;2.35;1.00;;;7.90;99.90;;;;;;5064345;28;20024;-75
2021/01/24 05:18:24;;;;;;;2.15;1.10;;;7.90;99.90;;;;;;5066498;28;20019;-78
2021/01/24 05:20:53;;;;;;;5.22;0.88;;;7.90;99.90;;;;;;5068713;28;20024;-75
2021/01/24 05:23:23;;;;;;;1.48;1.00;;;7.80;99.90;;;;;;5071397;28;20500;-75
2021/01/24 05:25:54;;;;;;;3.03;0.85;;;7.70;99.90;;;;;;5070621;28;20024;-76
2021/01/24 05:28:27;;;;;;;1.05;0.88;;;7.70;99.90;;;;;;5059211;28;20421;-75
2021/01/24 05:31:04;;;;;;;1.02;0.93;;;7.60;99.90;;;;;;5063228;28;20393;-74
2021/01/24 05:33:30;;;;;;;2.25;0.82;;;7.50;99.90;;;;;;5059572;28;20020;-75
2021/01/24 05:35:55;;;;;;;2.13;0.82;;;7.40;99.90;;;;;;5060723;28;20059;-76
2021/01/24 05:38:27;;;;;;;2.42;1.02;;;7.30;99.90;;;;;;5066078;28;20025;-75
2021/01/24 05:40:55;;;;;;;2.22;0.93;;;7.30;99.90;;;;;;5063497;28;20063;-76
2021/01/24 05:43:24;;;;;;;2.10;1.15;;;7.40;99.90;;;;;;5063330;28;20116;-75
2021/01/24 05:45:51;;;;;;;3.17;1.35;;;7.40;99.90;;;;;;5061438;28;20033;-76
2021/01/24 05:48:17;;;;;;;2.45;1.05;;;7.50;99.90;;;;;;5058543;28;20387;-76
2021/01/24 05:50:45;;;;;;;3.08;0.93;;;7.50;99.90;;;;;;5057254;28;20025;-74
2021/01/24 05:53:16;;;;;;;1.83;0.85;;;7.40;99.90;;;;;;5058632;28;20112;-76
2021/01/24 05:55:44;;;;;;;3.22;0.90;;;7.40;99.90;;;;;;5062029;28;20479;-75
2021/01/24 05:58:24;;;;;;;2.53;0.60;;;7.50;99.90;;;;;;5067259;28;20033;-75
2021/01/24 06:00:53;;;;;;;2.65;1.00;;;7.50;99.90;;;;;;5060946;28;20491;-75
2021/01/24 06:03:20;;;;;;;0.93;0.65;;;7.40;99.90;;;;;;5056513;28;20044;-75
2021/01/24 06:05:46;;;;;;;0.93;0.68;;;7.40;99.90;;;;;;5065487;28;20039;-76
2021/01/24 06:08:16;;;;;;;1.48;1.00;;;7.30;99.90;;;;;;5059844;28;20035;-76
2021/01/24 06:10:43;;;;;;;2.15;0.80;;;7.30;99.90;;;;;;5064040;28;20035;-74
2021/01/24 06:13:23;;;;;;;2.50;0.90;;;7.30;99.90;;;;;;5059873;28;20044;-75
2021/01/24 06:15:52;;;;;;;2.95;1.92;;;7.30;99.90;;;;;;5072158;28;20036;-75
2021/01/24 06:18:23;;;;;;;1.70;0.80;;;7.30;99.90;;;;;;5071819;28;20111;-76
2021/01/24 06:20:53;;;;;;;4.53;1.10;;;7.30;99.90;;;;;;5071267;28;20050;-75
2021/01/24 06:23:21;;;;;;;1.40;1.05;;;7.40;99.90;;;;;;5073185;28;20032;-77
2021/01/24 06:25:50;;;;;;;5.68;3.00;;;7.40;99.90;;;;;;5074929;28;20027;-76
2021/01/24 06:28:20;;;;;;;2.55;1.40;;;7.30;99.90;;;;;;5076052;28;20029;-75
2021/01/24 06:30:47;;;;;;;1.48;1.38;;;7.30;99.90;;;;;;5076424;28;20067;-76
2021/01/24 06:33:18;;;;;;;5.25;1.80;;;7.20;99.90;;;;;;5076270;28;20386;-76
2021/01/24 06:35:46;;;;;;;2.03;1.77;;;7.20;99.90;;;;;;5071931;28;20111;-75
2021/01/24 06:38:34;;;;;;;6.13;3.25;;;7.20;99.90;;;;;;5074775;28;20539;-76
2021/01/24 06:41:02;;;;;;;3.88;1.52;;;7.20;99.90;;;;;;5075683;28;20020;-75
2021/01/24 06:43:43;;;;;;;2.25;1.42;;;7.20;99.90;;;;;;5074045;28;20271;-75
2021/01/24 06:46:39;;;;;;;2.67;1.60;;;7.20;99.90;;;;;;5074891;28;20023;-76
2021/01/24 06:49:05;;;;;;;3.13;1.60;;;7.10;99.90;;;;;;5065807;28;20025;-76
2021/01/24 06:51:31;;;;;;;3.15;2.08;;;7.00;99.90;;;;;;5064846;28;20100;-75
2021/01/24 06:53:57;;;;;;;2.75;1.52;;;7.00;99.90;;;;;;5072505;28;20025;-76
2021/01/24 06:56:25;;;;;;;2.85;1.90;;;6.90;99.90;;;;;;5055481;28;20059;-76
2021/01/24 06:58:51;;;;;;;3.40;2.15;;;6.90;99.90;;;;;;5057324;28;20120;-76
2021/01/24 07:01:28;;;;;;;2.80;2.50;;;7.00;99.90;;;;;;5068438;28;20552;-75
2021/01/24 07:04:25;;;;;;;2.47;2.17;;;6.90;99.90;;;;;;5075191;28;20032;-76
2021/01/24 07:06:58;;;;;;;6.57;2.47;;;6.90;99.90;;;;;;5068310;28;20032;-75
2021/01/24 07:09:27;;;;;;;3.78;2.90;;;6.90;99.90;;;;;;5072994;28;20087;-74
2021/01/24 07:11:59;;;;;;;5.93;3.20;;;6.80;99.90;;;;;;5075001;28;20052;-77
2021/01/24 07:14:36;;;;;;;3.45;3.15;;;6.80;99.90;;;;;;5073751;28;20032;-76
2021/01/24 07:17:12;;;;;;;4.93;3.65;;;6.80;99.90;;;;;;5074695;28;20028;-75
2021/01/24 07:19:49;;;;;;;7.10;3.03;;;6.70;99.90;;;;;;5075152;28;20500;-76
2021/01/24 07:22:17;;;;;;;5.68;2.97;;;6.70;99.90;;;;;;5074876;28;20028;-76
2021/01/24 07:24:44;;;;;;;4.28;3.35;;;6.70;99.90;;;;;;5074962;28;20025;-75
2021/01/24 07:27:13;;;;;;;5.63;3.75;;;6.70;99.90;;;;;;5073295;28;20024;-76
2021/01/24 07:29:39;;;;;;;8.43;3.97;;;6.80;99.90;;;;;;5073507;28;20025;-76
2021/01/24 07:32:10;;;;;;;5.70;5.05;;;6.80;99.90;;;;;;5074509;28;20398;-76
2021/01/24 07:34:37;;;;;;;6.50;4.00;;;6.80;99.90;;;;;;5074252;28;20521;-75
2021/01/24 07:37:07;;;;;;;10.40;6.68;;;7.00;99.90;;;;;;5074081;28;20029;-75
2021/01/24 07:39:34;;;;;;;24.73;15.88;;;7.10;99.90;;;;;;5074250;28;20028;-75
2021/01/24 07:42:00;;;;;;;30.95;18.05;;;7.10;99.90;;;;;;5074086;28;20541;-75
2021/01/24 07:44:26;;;;;;;22.95;13.32;;;7.20;99.90;;;;;;5073728;28;20103;-76
2021/01/24 07:46:52;;;;;;;20.73;15.45;;;7.30;99.90;;;;;;5065583;28;20056;-75
2021/01/24 07:49:19;;;;;;;19.77;12.23;;;7.40;99.90;;;;;;5069410;28;20440;-76
2021/01/24 07:51:46;;;;;;;6.72;4.07;;;7.60;99.90;;;;;;5073196;28;20031;-76
2021/01/24 07:54:14;;;;;;;7.22;3.92;;;7.60;99.90;;;;;;5071955;28;20028;-78
2021/01/24 07:56:41;;;;;;;5.28;3.17;;;7.70;99.90;;;;;;5073447;28;20028;-79
2021/01/24 07:59:07;;;;;;;4.78;4.22;;;7.90;99.90;;;;;;5091207;28;20107;-78
2021/01/24 08:01:34;;;;;;;7.40;3.20;;;7.90;99.90;;;;;;5093647;28;20050;-77
2021/01/24 08:04:03;;;;;;;5.90;2.55;;;8.00;99.90;;;;;;5069668;28;20482;-77
2021/01/24 08:06:31;;;;;;;2.20;1.85;;;8.20;99.90;;;;;;5078112;28;20051;-78
2021/01/24 08:08:57;;;;;;;2.25;1.98;;;8.20;99.90;;;;;;5077793;28;20435;-78
2021/01/24 08:11:23;;;;;;;3.90;1.60;;;8.30;99.90;;;;;;5072645;28;20072;-78
2021/01/24 08:13:49;;;;;;;2.88;1.80;;;8.40;99.90;;;;;;5072473;28;20104;-78
2021/01/24 08:16:41;;;;;;;1.80;1.40;;;8.30;99.90;;;;;;5071716;28;20117;-77
2021/01/24 08:19:10;;;;;;;5.43;2.25;;;8.40;99.90;;;;;;5072832;28;20033;-77
2021/01/24 08:21:37;;;;;;;2.85;1.88;;;8.50;99.90;;;;;;5072365;28;20024;-78
2021/01/24 08:24:05;;;;;;;3.97;1.95;;;8.50;99.90;;;;;;5070884;28;20020;-77
2021/01/24 08:26:31;;;;;;;5.90;2.35;;;8.50;99.90;;;;;;5072376;28;20027;-77
2021/01/24 08:28:58;;;;;;;5.57;2.30;;;8.50;99.90;;;;;;5071010;28;20107;-77
2021/01/24 08:31:24;;;;;;;3.58;2.58;;;8.50;99.90;;;;;;5071207;28;20035;-77
2021/01/24 08:33:52;;;;;;;6.60;2.40;;;8.50;99.90;;;;;;5073013;28;20391;-77
2021/01/24 08:36:24;;;;;;;3.95;2.83;;;8.50;99.90;;;;;;5071759;28;20116;-77
2021/01/24 08:38:55;;;;;;;3.38;2.35;;;8.60;99.90;;;;;;5074049;28;20021;-78
2021/01/24 08:41:30;;;;;;;4.75;2.95;;;8.60;99.90;;;;;;5079833;28;20490;-78
2021/01/24 08:44:15;;;;;;;4.05;2.70;;;8.60;99.90;;;;;;5085638;28;20017;-77
2021/01/24 08:46:47;;;;;;;3.58;2.30;;;8.70;99.90;;;;;;5071123;28;20125;-77
2021/01/24 08:49:24;;;;;;;1.70;1.30;;;8.80;99.90;;;;;;5075558;28;20081;-77
2021/01/24 08:51:58;;;;;;;2.17;1.88;;;8.80;99.90;;;;;;5073971;28;20062;-76
2021/01/24 08:54:36;;;;;;;8.60;2.67;;;8.90;99.90;;;;;;5071896;28;20067;-76
2021/01/24 08:57:16;;;;;;;7.72;3.00;;;9.00;99.90;;;;;;5081204;28;20410;-77
2021/01/24 08:59:48;;;;;;;15.15;9.18;;;9.00;99.90;;;;;;5072315;28;20021;-77
2021/01/24 09:02:14;;;;;;;14.90;10.63;;;9.00;99.90;;;;;;5070574;28;20081;-77
2021/01/24 09:04:47;;;;;;;13.90;10.20;;;9.00;99.90;;;;;;5073900;28;20108;-77
2021/01/24 09:07:15;;;;;;;20.85;12.93;;;9.10;99.90;;;;;;5085006;28;20091;-77
2021/01/24 09:09:42;;;;;;;22.25;14.95;;;9.10;99.90;;;;;;5087918;28;20032;-77
2021/01/24 09:12:13;;;;;;;34.55;18.63;;;9.20;99.90;;;;;;5070852;28;20540;-77
2021/01/24 09:14:40;;;;;;;26.55;18.10;;;9.20;99.90;;;;;;5071773;28;20489;-78
2021/01/24 09:17:09;;;;;;;29.95;21.35;;;9.20;99.90;;;;;;5073641;28;20053;-77
2021/01/24 09:19:41;;;;;;;35.72;21.63;;;9.20;99.90;;;;;;5072470;28;20028;-77
2021/01/24 09:22:12;;;;;;;20.55;15.80;;;9.20;99.90;;;;;;5071083;28;20039;-77
2021/01/24 09:24:39;;;;;;;20.17;14.63;;;9.20;99.90;;;;;;5071225;28;20163;-77
2021/01/24 09:27:07;;;;;;;29.17;18.33;;;9.10;99.90;;;;;;5071714;28;20056;-78
2021/01/24 09:29:37;;;;;;;23.65;18.05;;;9.00;99.90;;;;;;5071994;28;20024;-77
2021/01/24 09:32:04;;;;;;;39.97;28.10;;;9.00;99.90;;;;;;5072786;28;20016;-78
2021/01/24 09:34:30;;;;;;;44.70;33.05;;;9.10;99.90;;;;;;5073255;28;20036;-77
2021/01/24 09:36:56;;;;;;;42.72;28.85;;;9.30;99.90;;;;;;5071970;28;20039;-77
2021/01/24 09:39:22;;;;;;;42.05;32.38;;;9.20;99.90;;;;;;5087066;28;20020;-77
2021/01/24 09:41:48;;;;;;;54.58;40.13;;;9.10;99.90;;;;;;5080993;28;20024;-78
2021/01/24 09:44:15;;;;;;;50.45;37.33;;;9.00;99.90;;;;;;5084052;28;20025;-78
2021/01/24 09:46:41;;;;;;;36.30;30.73;;;9.00;99.90;;;;;;5076921;28;20463;-76
2021/01/24 09:49:07;;;;;;;36.33;28.23;;;9.00;99.90;;;;;;5070428;28;20052;-76
2021/01/24 09:51:33;;;;;;;23.90;18.27;;;9.00;99.90;;;;;;5071730;28;20073;-76
2021/01/24 09:53:59;;;;;;;25.95;23.08;;;8.90;99.90;;;;;;5071992;28;20107;-76
2021/01/24 09:56:26;;;;;;;21.63;19.27;;;9.00;99.90;;;;;;5070071;28;20051;-76
2021/01/24 09:58:53;;;;;;;21.38;19.17;;;8.90;99.90;;;;;;5073628;28;20020;-76
2021/01/24 10:01:20;;;;;;;19.23;17.08;;;8.90;99.90;;;;;;5080210;28;20020;-76
2021/01/24 10:03:47;;;;;;;25.30;19.50;;;9.00;99.90;;;;;;5080214;28;20020;-76
2021/01/24 10:06:13;;;;;;;19.40;11.98;;;9.00;99.90;;;;;;5074990;28;20020;-77
2021/01/24 10:08:39;;;;;;;14.35;7.22;;;9.10;99.90;;;;;;5075582;28;20501;-76
2021/01/24 10:11:05;;;;;;;10.77;8.27;;;9.10;99.90;;;;;;5074996;28;20084;-72
2021/01/24 10:13:31;;;;;;;11.50;8.93;;;9.20;99.90;;;;;;5075278;28;20024;-76
2021/01/24 10:15:57;;;;;;;14.27;11.55;;;9.30;99.90;;;;;;5073457;28;20032;-76
2021/01/24 10:18:23;;;;;;;12.73;11.10;;;9.30;99.90;;;;;;5074164;28;20103;-74
2021/01/24 10:20:49;;;;;;;14.07;10.93;;;9.40;99.90;;;;;;5075432;28;20027;-74
2021/01/24 10:23:20;;;;;;;12.07;9.85;;;9.50;99.90;;;;;;5074103;28;20025;-74
2021/01/24 10:25:46;;;;;;;11.07;9.07;;;9.60;99.90;;;;;;5074601;28;20023;-73
2021/01/24 10:28:12;;;;;;;13.68;10.07;;;9.60;99.90;;;;;;5074767;28;20035;-74
2021/01/24 10:30:38;;;;;;;14.23;10.32;;;9.60;99.90;;;;;;5074232;28;20636;-75
2021/01/24 10:33:03;;;;;;;16.63;10.82;;;9.60;99.90;;;;;;5075643;28;20032;-76
2021/01/24 10:35:29;;;;;;;19.23;10.90;;;9.60;99.90;;;;;;5078942;28;20487;-74
2021/01/24 10:37:55;;;;;;;14.55;9.95;;;9.70;99.90;;;;;;5074887;28;20027;-76
2021/01/24 10:40:21;;;;;;;14.60;8.77;;;9.70;99.90;;;;;;5075266;28;20172;-75
2021/01/24 10:42:46;;;;;;;11.65;7.95;;;9.70;99.90;;;;;;5075675;28;20392;-72
2021/01/24 10:45:12;;;;;;;14.05;10.32;;;9.80;99.90;;;;;;5074878;28;20021;-77
2021/01/24 10:47:39;;;;;;;10.80;9.00;;;9.80;99.90;;;;;;5072658;28;20505;-76
2021/01/24 10:50:07;;;;;;;14.30;8.10;;;9.90;99.90;;;;;;5088702;28;20030;-76
2021/01/24 10:52:33;;;;;;;15.88;8.75;;;9.90;99.90;;;;;;5087113;28;20024;-76
2021/01/24 10:54:58;;;;;;;9.52;7.72;;;10.00;99.90;;;;;;5061185;28;20029;-75
2021/01/24 10:57:24;;;;;;;9.82;8.13;;;10.00;99.90;;;;;;5054807;28;20104;-73
2021/01/24 10:59:50;;;;;;;7.97;7.15;;;10.00;99.90;;;;;;5063760;28;20027;-76
2021/01/24 11:02:16;;;;;;;7.57;6.88;;;10.00;99.90;;;;;;5080972;28;20044;-76
2021/01/24 11:04:42;;;;;;;12.25;6.97;;;10.10;99.90;;;;;;5086991;28;20035;-76
2021/01/24 11:07:08;;;;;;;10.15;7.85;;;10.10;99.90;;;;;;5070774;28;20032;-81
2021/01/24 11:09:34;;;;;;;8.75;6.97;;;10.00;99.90;;;;;;5074239;28;20028;-76
2021/01/24 11:11:59;;;;;;;8.95;6.50;;;10.00;99.90;;;;;;5074874;28;20623;-75
2021/01/24 11:14:29;;;;;;;10.18;6.82;;;10.00;99.90;;;;;;5081975;28;20031;-80
2021/01/24 11:16:55;;;;;;;12.32;7.78;;;9.80;99.90;;;;;;5077381;28;20028;-72
2021/01/24 11:19:20;;;;;;;7.38;4.97;;;9.70;99.90;;;;;;5056226;28;20028;-75
2021/01/24 11:21:46;;;;;;;11.90;5.15;;;9.50;99.90;;;;;;5056942;28;20053;-77
2021/01/24 11:24:12;;;;;;;8.70;5.13;;;9.50;99.90;;;;;;5053102;28;20383;-76
2021/01/24 11:26:38;;;;;;;7.90;4.78;;;9.50;99.90;;;;;;5054037;28;20074;-76
2021/01/24 11:29:04;;;;;;;9.55;5.72;;;9.70;99.90;;;;;;5053816;28;20032;-76
2021/01/24 11:31:31;;;;;;;9.48;4.45;;;9.70;99.90;;;;;;5056673;28;20021;-76
2021/01/24 11:33:57;;;;;;;7.47;4.63;;;9.70;99.90;;;;;;5072995;28;20030;-78
2021/01/24 11:36:23;;;;;;;10.07;4.85;;;9.70;99.90;;;;;;5073557;28;20147;-75
2021/01/24 11:38:49;;;;;;;8.00;6.18;;;9.60;99.90;;;;;;5072981;28;20024;-76
2021/01/24 11:41:15;;;;;;;18.30;8.40;;;9.40;99.90;;;;;;5072912;28;20029;-75
2021/01/24 11:43:40;;;;;;;6.97;5.78;;;9.30;99.90;;;;;;5072377;28;20481;-76
2021/01/24 11:46:06;;;;;;;12.05;7.03;;;9.30;99.90;;;;;;5071092;28;20628;-77
2021/01/24 11:48:33;;;;;;;8.85;5.90;;;9.20;99.90;;;;;;5072474;28;20025;-77
2021/01/24 11:50:58;;;;;;;9.18;6.22;;;9.10;99.90;;;;;;5071416;28;20017;-75
2021/01/24 11:53:24;;;;;;;9.70;4.03;;;9.00;99.90;;;;;;5073408;28;20033;-75
2021/01/24 11:55:52;;;;;;;8.32;3.80;;;9.00;99.90;;;;;;5073332;28;20025;-76
2021/01/24 11:58:21;;;;;;;8.93;5.15;;;9.10;99.90;;;;;;5063566;28;20082;-75
2021/01/24 12:00:47;;;;;;;4.13;2.38;;;9.00;99.90;;;;;;5051543;28;20511;-75
2021/01/24 12:03:13;;;;;;;5.25;2.47;;;9.10;99.90;;;;;;5051745;28;20471;-76
2021/01/24 12:05:39;;;;;;;4.60;2.25;;;9.10;99.90;;;;;;5051892;28;20018;-76
2021/01/24 12:08:06;;;;;;;6.78;2.58;;;9.10;99.90;;;;;;5050203;28;20033;-76
2021/01/24 12:10:32;;;;;;;6.30;2.80;;;9.10;99.90;;;;;;5051717;28;20032;-75
2021/01/24 12:12:58;;;;;;;5.28;2.63;;;9.10;99.90;;;;;;5059899;28;20031;-77
2021/01/24 12:15:24;;;;;;;7.70;3.97;;;9.10;99.90;;;;;;5071409;28;20032;-75
2021/01/24 12:17:50;;;;;;;4.88;1.98;;;9.10;99.90;;;;;;5070291;28;20093;-76
2021/01/24 12:20:16;;;;;;;2.83;1.65;;;8.90;99.90;;;;;;5070381;28;20027;-76
2021/01/24 12:22:42;;;;;;;5.03;1.48;;;8.80;99.90;;;;;;5069945;28;20024;-75
2021/01/24 12:25:09;;;;;;;5.60;2.15;;;8.70;99.90;;;;;;5071994;28;20106;-75
2021/01/24 12:27:35;;;;;;;3.03;1.20;;;8.50;99.90;;;;;;5060868;28;20510;-75
2021/01/24 12:30:01;;;;;;;3.78;1.52;;;8.50;99.90;;;;;;5051557;28;20056;-75
2021/01/24 12:32:27;;;;;;;2.22;1.25;;;8.50;99.90;;;;;;5051704;28;20110;-76
2021/01/24 12:34:53;;;;;;;2.65;1.83;;;8.50;99.90;;;;;;5051386;28;20039;-76
2021/01/24 12:37:19;;;;;;;4.20;2.33;;;8.70;99.90;;;;;;5051373;28;20033;-74
2021/01/24 12:39:45;;;;;;;5.32;2.13;;;8.70;99.90;;;;;;5050006;28;20053;-76
2021/01/24 12:42:10;;;;;;;6.75;2.17;;;8.80;99.90;;;;;;5071209;28;20020;-74
2021/01/24 12:44:36;;;;;;;2.97;1.83;;;8.80;99.90;;;;;;5083900;28;20035;-74
2021/01/24 12:47:02;;;;;;;15.32;9.52;;;8.90;99.90;;;;;;5089272;28;20076;-75
2021/01/24 12:49:28;;;;;;;9.70;5.68;;;9.00;99.90;;;;;;5073747;28;20036;-75
2021/01/24 12:51:53;;;;;;;6.95;6.03;;;9.00;99.90;;;;;;5070009;28;20024;-74
2021/01/24 12:54:20;;;;;;;12.10;9.85;;;8.80;99.90;;;;;;5053873;28;20053;-75